메인 페이지
METAR-TAF:

METAR-TAF

공항 :

Marine Corps Air-Ground Combat Center

Twentynine Palms, 캘리포니아, 미국

위도: 34-17-40N, 경도: 116-08-42W, 고도: 626m

현재 날씨관측

예보는 53분 전, 19:56시(UTC)에 발표되었습니다.
남남동20kt, 순간 최대 풍속 28kt
온도 38°C
습도 9%
기압 1015 hPa
시정: 16.1km
고도 2000ft 상공 구름 조금

METAR: KNXP 131956Z 15020G28KT 10SM FEW020 38/M01 A2996 RMK AO2 PK WND 17028/1955 SLP101 T03831011

시각: 13:49 (20:49 UTC)

예보

예보 대상 시간: 13일 15시부터 14일 15시까지 (UTC)
서남서5kt
시정 10km 이상
맑음
전환 중
13일 19시부터 13일 21시까지 (UTC)
10kt, 순간 최대 풍속 20kt
시정 10km 이상
맑음
전환 중
14일 01시부터 14일 03시까지 (UTC)
서북서10kt, 순간 최대 풍속 20kt
시정 10km 이상
맑음
14일 0730시부터 (UTC)
북서7kt, 순간 최대 풍속 17kt
시정 10km 이상
맑음

TAF: KNXP 1315/1415 24005KT 9999 SKC QNH2994INS BECMG 1319/1321 18010G20KT 9999 SKC QNH2988INS BECMG 1401/1403 30010G20KT 9999 SKC QNH2990INS FM140730 31007G17KT 9999 SKC QNH2987INS T38/1321Z T24/1415Z

4,000개 이상의 공항 관측 자료 및 예보 (METAR 및 TAF 보고).

지도상에서 검색 가능한 기상관측소가 노란 점과 빨간 점으로 표시되어 있습니다.

기상관측소 명을 보려면 표시 위로 마우스를 이동하세요.

날씨 관측과 예보를 보려면 클릭하세요.

지도 변경 : 확대하려면 엑스 표시가 있는 녹색 버튼, 축소하려면 빼기 표시가 있는 녹색 버튼, 다음 페이지의 지도를 보려면 녹색 화살표를 클릭하세요.


METAR-TAF: